Walnut Ridge, AR

6:54 AM CST on February 24, 2017 (GMT -0600)
Walnut Ridge Regional

Weather History for KARG - March, 2014

Change the Weather History Date:

Monday, March 24, 2014

  Actual Average Record
Temperature  
Mean Temperature 38 °F -  
Max Temperature 48 °F 59 °F 82 °F (2007)
Min Temperature 28 °F 41 °F 28 °F (2014)
Degree Days  
Heating Degree Days 27    
Moisture  
Dew Point 24 °F    
Average Humidity 54    
Maximum Humidity 74    
Minimum Humidity 34    
Precipitation  
Precipitation 0.00 in - - ()
Sea Level Pressure  
Sea Level Pressure 30.25 in    
Wind  
Wind Speed 8 mph (NE)    
Max Wind Speed 14 mph    
Max Gust Speed 16 mph    
Visibility 10 miles    
Events      
Averages and records for this station are not official NWS values.
T = Trace of Precipitation, MM = Missing Value Source: NWS Daily Summary

Daily Weather History Graph

Daily Weather History Graph

Search for Another Location

Airport or City:

Trip Planner

Search our weather history database for the weather conditions in past years. The results will help you decide how hot, cold, wet, or windy it might be!

Date:

Astronomy

Mar. 24, 2014 Rise Set
Actual Time 7:01 AM CDT 7:18 PM CDT
Civil Twilight 6:35 AM CDT 7:44 PM CDT
Nautical Twilight 6:05 AM CDT 8:14 PM CDT
Astronomical Twilight 5:35 AM CDT 8:45 PM CDT
Moon 2:21 AM CDT 12:54 PM CDT
Length of Visible Light 13h 08m
Length of Day
12h 17m
Last Quarter, 43% of the Moon is Illuminated
Mar 24
Last Quarter
Mar 30
New
Apr 7
First Quarter
Apr 15
Full
Apr 22
Last Quarter

Hourly Weather History & Observations

Time (CDT) Temp. Windchill Dew Point Humidity Pressure Visibility Wind Dir Wind Speed Gust Speed Precip Events Conditions
12:15 AM 35.6 °F 29.9 °F 24.8 °F 65% 30.33 in 10.0 mi NE 6.9 mph - N/A   Clear
12:35 AM 33.8 °F 27.0 °F 23.0 °F 65% 30.33 in 10.0 mi NE 8.1 mph - N/A   Clear
12:55 AM 35.6 °F 29.2 °F 23.0 °F 60% 30.32 in 10.0 mi NE 8.1 mph - N/A   Clear
1:15 AM 33.8 °F 25.8 °F 23.0 °F 65% 30.32 in 10.0 mi NNE 10.4 mph - N/A   Clear
1:35 AM 33.8 °F 26.4 °F 21.2 °F 60% 30.32 in 10.0 mi NNE 9.2 mph - N/A   Clear
1:55 AM 33.8 °F 26.4 °F 21.2 °F 60% 30.33 in 10.0 mi NNE 9.2 mph - N/A   Clear
2:15 AM 33.8 °F 27.0 °F 21.2 °F 60% 30.33 in 10.0 mi NE 8.1 mph - N/A   Clear
2:35 AM 32.0 °F 24.2 °F 21.2 °F 64% 30.32 in 10.0 mi NE 9.2 mph - N/A   Clear
2:55 AM 33.8 °F 27.0 °F 21.2 °F 60% 30.32 in 10.0 mi NNE 8.1 mph - N/A   Clear
3:15 AM 33.8 °F 26.4 °F 21.2 °F 60% 30.32 in 10.0 mi NNE 9.2 mph - N/A   Clear
3:35 AM 32.0 °F 24.8 °F 21.2 °F 64% 30.31 in 10.0 mi NNE 8.1 mph - N/A   Clear
3:55 AM 30.2 °F 23.4 °F 21.2 °F 69% 30.31 in 10.0 mi NNE 6.9 mph - N/A   Clear
4:15 AM 32.0 °F 24.8 °F 21.2 °F 64% 30.31 in 10.0 mi NNE 8.1 mph - N/A   Clear
4:35 AM 32.0 °F 26.4 °F 19.4 °F 60% 30.31 in 10.0 mi NNE 5.8 mph - N/A   Clear
4:55 AM 30.2 °F 23.4 °F 19.4 °F 64% 30.31 in 10.0 mi NE 6.9 mph - N/A   Clear
5:15 AM 30.2 °F 23.4 °F 21.2 °F 69% 30.30 in 10.0 mi NE 6.9 mph - N/A   Clear
5:35 AM 28.4 °F 21.2 °F 21.2 °F 74% 30.30 in 10.0 mi NE 6.9 mph - N/A   Clear
5:55 AM 28.4 °F 21.2 °F 21.2 °F 74% 30.30 in 10.0 mi NNE 6.9 mph - N/A   Clear
6:15 AM 30.2 °F 24.3 °F 19.4 °F 64% 30.31 in 10.0 mi NNE 5.8 mph - N/A   Clear
6:35 AM 30.2 °F 21.9 °F 19.4 °F 64% 30.32 in 10.0 mi North 9.2 mph - N/A   Clear
6:55 AM 30.2 °F 22.6 °F 19.4 °F 64% 30.33 in 10.0 mi North 8.1 mph - N/A   Clear
7:15 AM 30.2 °F 23.4 °F 21.2 °F 69% 30.34 in 10.0 mi North 6.9 mph - N/A   Clear
7:35 AM 30.2 °F 21.9 °F 21.2 °F 69% 30.34 in 10.0 mi North 9.2 mph - N/A   Clear
7:55 AM 30.2 °F 24.3 °F 21.2 °F 69% 30.35 in 10.0 mi North 5.8 mph - N/A   Clear
8:15 AM 33.8 °F 26.4 °F 21.2 °F 60% 30.35 in 5.0 mi NNE 9.2 mph - N/A   Clear
8:35 AM 33.8 °F 25.3 °F 23.0 °F 65% 30.34 in 10.0 mi NE 11.5 mph - N/A   Clear
8:55 AM 35.6 °F 26.6 °F 21.2 °F 56% 30.33 in 10.0 mi ENE 13.8 mph - N/A   Clear
9:15 AM 35.6 °F 27.1 °F 21.2 °F 56% 30.33 in 10.0 mi ENE 12.7 mph - N/A   Clear
9:35 AM 35.6 °F 27.5 °F 23.0 °F 60% 30.34 in 10.0 mi ENE 11.5 mph - N/A   Clear
9:55 AM 37.4 °F 30.8 °F 23.0 °F 56% 30.34 in 10.0 mi East 9.2 mph - N/A   Clear
10:15 AM 39.2 °F 33.0 °F 21.2 °F 49% 30.34 in 10.0 mi East 9.2 mph - N/A   Clear
10:35 AM 39.2 °F 33.6 °F 24.8 °F 56% 30.32 in 10.0 mi ENE 8.1 mph - N/A   Clear
10:55 AM 41.0 °F 33.9 °F 24.8 °F 53% 30.31 in 10.0 mi East 12.7 mph - N/A   Clear
11:15 AM 42.8 °F 38.0 °F 24.8 °F 49% 30.30 in 10.0 mi NE 8.1 mph - N/A   Clear
11:35 AM 42.8 °F 38.0 °F 24.8 °F 49% 30.30 in 10.0 mi NNE 8.1 mph - N/A   Clear
11:55 AM 44.6 °F 40.7 °F 24.8 °F 46% 30.30 in 9.0 mi NNE 6.9 mph - N/A   Partly Cloudy
12:15 PM 44.6 °F 41.4 °F 23.0 °F 43% 30.29 in 10.0 mi NNE 5.8 mph - N/A   Partly Cloudy
12:35 PM 44.6 °F 40.2 °F 24.8 °F 46% 30.28 in 10.0 mi NE 8.1 mph - N/A   Clear
12:55 PM 44.6 °F 39.2 °F 24.8 °F 46% 30.27 in 10.0 mi NE 10.4 mph - N/A   Partly Cloudy
1:15 PM 46.4 °F 41.5 °F 24.8 °F 43% 30.26 in 10.0 mi ENE 10.4 mph - N/A   Partly Cloudy
1:35 PM 46.4 °F 42.4 °F 24.8 °F 43% 30.24 in 10.0 mi NE 8.1 mph - N/A   Partly Cloudy
1:55 PM 46.4 °F 41.1 °F 21.2 °F 37% 30.22 in 10.0 mi ENE 11.5 mph 16.1 mph N/A   Clear
2:15 PM 48.2 °F - 23.0 °F 37% 30.21 in 10.0 mi NNE 9.2 mph - N/A   Clear
2:35 PM 48.2 °F - 21.2 °F 34% 30.20 in 10.0 mi East 8.1 mph - N/A   Partly Cloudy
2:55 PM 48.2 °F - 21.2 °F 34% 30.18 in 10.0 mi NE 4.6 mph - N/A   Scattered Clouds
3:15 PM 48.2 °F - 24.8 °F 40% 30.17 in 10.0 mi NNE 5.8 mph - N/A   Scattered Clouds
3:35 PM 48.2 °F - 23.0 °F 37% 30.16 in 10.0 mi NNE 5.8 mph - N/A   Partly Cloudy
3:55 PM 48.2 °F - 21.2 °F 34% 30.15 in 10.0 mi NE 9.2 mph - N/A   Partly Cloudy
4:15 PM 48.2 °F - 21.2 °F 34% 30.15 in 10.0 mi NE 9.2 mph - N/A   Partly Cloudy
4:35 PM 48.2 °F - 23.0 °F 37% 30.15 in 10.0 mi North 8.1 mph - N/A   Clear
4:55 PM 48.2 °F - 23.0 °F 37% 30.13 in 10.0 mi NE 5.8 mph - N/A   Scattered Clouds
5:15 PM 48.2 °F - 21.2 °F 34% 30.14 in 10.0 mi NNE 8.1 mph - N/A   Mostly Cloudy
5:35 PM 46.4 °F 41.5 °F 24.8 °F 43% 30.14 in 10.0 mi NE 10.4 mph - N/A   Partly Cloudy
5:55 PM 46.4 °F 41.5 °F 23.0 °F 40% 30.14 in 10.0 mi NE 10.4 mph - N/A   Mostly Cloudy
6:15 PM 46.4 °F 42.4 °F 24.8 °F 43% 30.14 in 10.0 mi ENE 8.1 mph - N/A   Mostly Cloudy
6:35 PM 46.4 °F 42.9 °F 24.8 °F 43% 30.14 in 10.0 mi ENE 6.9 mph - N/A   Mostly Cloudy
6:55 PM 46.4 °F 42.4 °F 26.6 °F 46% 30.14 in 10.0 mi East 8.1 mph - N/A   Overcast
7:15 PM 46.4 °F 42.9 °F 24.8 °F 43% 30.14 in 10.0 mi East 6.9 mph - N/A   Mostly Cloudy
7:35 PM 44.6 °F 40.2 °F 24.8 °F 46% 30.13 in 10.0 mi East 8.1 mph - N/A   Clear
7:55 PM 42.8 °F 39.3 °F 26.6 °F 53% 30.14 in 10.0 mi ENE 5.8 mph - N/A   Mostly Cloudy
8:15 PM 42.8 °F 39.3 °F 28.4 °F 57% 30.14 in 10.0 mi ENE 5.8 mph - N/A   Overcast
8:35 PM 42.8 °F 40.1 °F 28.4 °F 57% 30.15 in 10.0 mi East 4.6 mph - N/A   Mostly Cloudy
8:55 PM 42.8 °F 40.1 °F 28.4 °F 57% 30.16 in 10.0 mi NE 4.6 mph - N/A   Partly Cloudy
9:15 PM 42.8 °F 41.1 °F 28.4 °F 57% 30.17 in 10.0 mi North 3.5 mph - N/A   Clear
9:35 PM 41.0 °F 38.0 °F 28.4 °F 61% 30.18 in 10.0 mi North 4.6 mph - N/A   Scattered Clouds
9:55 PM 41.0 °F 39.0 °F 28.4 °F 61% 30.18 in 10.0 mi North 3.5 mph - N/A   Scattered Clouds
10:15 PM 39.2 °F 35.0 °F 30.2 °F 70% 30.19 in 10.0 mi North 5.8 mph - N/A   Scattered Clouds
10:35 PM 41.0 °F 36.4 °F 26.6 °F 57% 30.19 in 10.0 mi NNE 6.9 mph - N/A   Mostly Cloudy
10:55 PM 42.8 °F 40.1 °F 26.6 °F 53% 30.19 in 10.0 mi NNE 4.6 mph - N/A   Mostly Cloudy
11:15 PM 41.0 °F 37.1 °F 28.4 °F 61% 30.18 in 10.0 mi NNW 5.8 mph - N/A   Mostly Cloudy
11:35 PM 41.0 °F 37.1 °F 28.4 °F 61% 30.18 in 10.0 mi North 5.8 mph - N/A   Overcast
11:55 PM 41.0 °F 36.4 °F 28.4 °F 61% 30.17 in 10.0 mi North 6.9 mph - N/A   Overcast